TimeCST,TemperatureF,Dew PointF,Humidity,Sea Level PressureIn,VisibilityMPH,Wind Direction,Wind SpeedMPH,Gust SpeedMPH,PrecipitationIn,Events,Conditions,WindDirDegrees,DateUTC
12:53 AM,46.9,39.9,77,30.11,10.0,South,4.6,-,N/A,,Clear,170,2013-03-04 06:53:00
1:53 AM,46.9,41.0,80,30.09,10.0,SSE,4.6,-,N/A,,Clear,160,2013-03-04 07:53:00
2:53 AM,48.0,42.1,80,30.08,10.0,SSE,4.6,-,N/A,,Clear,160,2013-03-04 08:53:00
3:53 AM,48.0,43.0,83,30.06,10.0,SSE,4.6,-,N/A,,Clear,160,2013-03-04 09:53:00
4:53 AM,48.9,45.0,86,30.06,10.0,South,6.9,-,N/A,,Clear,170,2013-03-04 10:53:00
5:53 AM,50.0,45.0,83,30.04,10.0,SSE,6.9,-,N/A,,Clear,160,2013-03-04 11:53:00
6:53 AM,50.0,46.0,86,30.04,10.0,SSE,6.9,-,N/A,,Clear,160,2013-03-04 12:53:00
7:53 AM,55.0,48.0,77,30.04,10.0,South,9.2,-,N/A,,Clear,170,2013-03-04 13:53:00
8:53 AM,62.1,51.1,67,30.04,10.0,South,11.5,25.3,N/A,,Clear,170,2013-03-04 14:53:00
9:53 AM,64.9,52.0,63,30.04,10.0,South,15.0,28.8,N/A,,Partly Cloudy,180,2013-03-04 15:53:00
10:53 AM,66.9,52.0,59,30.04,10.0,South,20.7,29.9,N/A,,Overcast,190,2013-03-04 16:53:00
11:53 AM,68.0,53.1,59,30.01,10.0,South,23.0,33.4,N/A,,Mostly Cloudy,190,2013-03-04 17:53:00
12:53 PM,71.1,54.0,55,29.99,10.0,South,17.3,31.1,N/A,,Mostly Cloudy,190,2013-03-04 18:53:00
1:53 PM,70.0,54.0,57,29.96,10.0,South,15.0,27.6,N/A,,Mostly Cloudy,190,2013-03-04 19:53:00
2:53 PM,69.1,55.0,61,29.95,10.0,South,21.9,29.9,N/A,,Mostly Cloudy,190,2013-03-04 20:53:00
3:53 PM,69.1,55.9,63,29.94,10.0,South,17.3,25.3,N/A,,Mostly Cloudy,180,2013-03-04 21:53:00
4:53 PM,68.0,55.9,65,29.92,10.0,South,16.1,25.3,N/A,,Mostly Cloudy,180,2013-03-04 22:53:00
5:53 PM,66.0,55.9,70,29.92,10.0,South,10.4,23.0,N/A,,Mostly Cloudy,190,2013-03-04 23:53:00
6:53 PM,64.9,57.0,75,29.91,10.0,South,12.7,20.7,N/A,,Mostly Cloudy,180,2013-03-05 00:53:00
7:53 PM,64.0,57.0,78,29.91,10.0,South,10.4,-,N/A,,Mostly Cloudy,180,2013-03-05 01:53:00
8:53 PM,64.0,57.9,80,29.93,10.0,South,12.7,-,N/A,,Overcast,180,2013-03-05 02:53:00
9:53 PM,64.0,57.9,80,29.93,10.0,South,10.4,-,N/A,,Mostly Cloudy,180,2013-03-05 03:53:00
10:53 PM,63.0,57.9,84,29.92,10.0,South,13.8,-,N/A,,Overcast,190,2013-03-05 04:53:00
11:53 PM,63.0,57.9,84,29.92,10.0,South,10.4,-,N/A,,Overcast,190,2013-03-05 05:53:00